sensor_id;sensor_type;location;lat;lon;timestamp;pressure;altitude;pressure_sealevel;temperature;humidity
17950;BME280;9100;48.700;9.316;2023-03-01T00:00:34;98487.5;;;1.25;98.35
17950;BME280;9100;48.700;9.316;2023-03-01T00:01:32;98478.5;;;1.22;98.332
17950;BME280;9100;48.700;9.316;2023-03-01T00:01:35;98482.7;;;1.22;98.33
17950;BME280;9100;48.700;9.316;2023-03-01T00:02:34;98484.3;;;1.23;98.429
17950;BME280;9100;48.700;9.316;2023-03-01T00:03:34;98478.5;;;1.22;98.468
17950;BME280;9100;48.700;9.316;2023-03-01T00:04:34;98470.7;;;1.13;98.549
17950;BME280;9100;48.700;9.316;2023-03-01T00:05:35;98486.1;;;1.21;98.643
17950;BME280;9100;48.700;9.316;2023-03-01T00:06:31;98479.6;;;1.18;98.771
17950;BME280;9100;48.700;9.316;2023-03-01T00:06:34;98482.9;;;1.19;98.773
17950;BME280;9100;48.700;9.316;2023-03-01T00:07:34;98478.9;;;1.16;98.87
17950;BME280;9100;48.700;9.316;2023-03-01T00:08:34;98483.1;;;1.16;99.034
17950;BME280;9100;48.700;9.316;2023-03-01T00:09:35;98483.2;;;1.14;99.188
17950;BME280;9100;48.700;9.316;2023-03-01T00:10:34;98486.7;;;1.12;99.327
17950;BME280;9100;48.700;9.316;2023-03-01T00:11:31;98483.5;;;1.1;99.385
17950;BME280;9100;48.700;9.316;2023-03-01T00:11:34;98488.5;;;1.1;99.385
17950;BME280;9100;48.700;9.316;2023-03-01T00:12:34;98487.7;;;1.09;99.497
17950;BME280;9100;48.700;9.316;2023-03-01T00:13:35;98488.5;;;1.1;99.541
17950;BME280;9100;48.700;9.316;2023-03-01T00:14:35;98486.1;;;1.08;99.538
17950;BME280;9100;48.700;9.316;2023-03-01T00:15:37;98494.6;;;1.07;99.628
17950;BME280;9100;48.700;9.316;2023-03-01T00:16:32;98492.2;;;1.06;99.739
17950;BME280;9100;48.700;9.316;2023-03-01T00:16:35;98491.3;;;1.05;99.748
17950;BME280;9100;48.700;9.316;2023-03-01T00:17:35;98490.5;;;1.05;100
17950;BME280;9100;48.700;9.316;2023-03-01T00:18:34;98488.9;;;1.04;100
17950;BME280;9100;48.700;9.316;2023-03-01T00:19:34;98494;;;1.04;100
17950;BME280;9100;48.700;9.316;2023-03-01T00:20:34;98486.5;;;1.02;100
17950;BME280;9100;48.700;9.316;2023-03-01T00:21:31;98489.09999999999;;;1.01;100
17950;BME280;9100;48.700;9.316;2023-03-01T00:21:35;98470.4;;;0.92;100
17950;BME280;9100;48.700;9.316;2023-03-01T00:22:34;98340.7;;;0.09;100
17950;BME280;9100;48.700;9.316;2023-03-01T00:23:34;98487.40000000001;;;1.01;100
17950;BME280;9100;48.700;9.316;2023-03-01T00:24:34;98490.7;;;1.02;100
17950;BME280;9100;48.700;9.316;2023-03-01T00:25:40;98488;;;1.05;100
17950;BME280;9100;48.700;9.316;2023-03-01T00:26:31;98484.7;;;1.04;100
17950;BME280;9100;48.700;9.316;2023-03-01T00:26:35;98489.8;;;1.04;100
17950;BME280;9100;48.700;9.316;2023-03-01T00:27:34;98486.3;;;1.05;100
17950;BME280;9100;48.700;9.316;2023-03-01T00:28:34;98481.3;;;1.05;100
17950;BME280;9100;48.700;9.316;2023-03-01T00:29:34;98479.6;;;1.06;100
17950;BME280;9100;48.700;9.316;2023-03-01T00:30:35;98479.6;;;1.06;100
17950;BME280;9100;48.700;9.316;2023-03-01T00:31:32;98487.90000000001;;;1.06;100
17950;BME280;9100;48.700;9.316;2023-03-01T00:31:34;98479.6;;;1.06;100
17950;BME280;9100;48.700;9.316;2023-03-01T00:32:34;98478.7;;;1.07;100
17950;BME280;9100;48.700;9.316;2023-03-01T00:33:34;98476.70000000001;;;0.97;100
17950;BME280;9100;48.700;9.316;2023-03-01T00:34:35;98485.5;;;1.05;100
17950;BME280;9100;48.700;9.316;2023-03-01T00:35:35;98477.20000000001;;;1.03;100
17950;BME280;9100;48.700;9.316;2023-03-01T00:36:32;98476.5;;;1.01;100
17950;BME280;9100;48.700;9.316;2023-03-01T00:36:35;98481.5;;;1.01;100
17950;BME280;9100;48.700;9.316;2023-03-01T00:37:35;98479;;;1.01;100
17950;BME280;9100;48.700;9.316;2023-03-01T00:38:35;98471.5;;;1.01;100
17950;BME280;9100;48.700;9.316;2023-03-01T00:39:34;98479.2;;;0.99;100
17950;BME280;9100;48.700;9.316;2023-03-01T00:40:35;98468.5;;;0.95;100
17950;BME280;9100;48.700;9.316;2023-03-01T00:41:31;98470.3;;;0.93;100
17950;BME280;9100;48.700;9.316;2023-03-01T00:41:34;98467;;;0.93;100
17950;BME280;9100;48.700;9.316;2023-03-01T00:42:34;98461.90000000001;;;0.93;100
17950;BME280;9100;48.700;9.316;2023-03-01T00:43:34;98473.7;;;0.92;100
17950;BME280;9100;48.700;9.316;2023-03-01T00:44:35;98473.7;;;0.92;100
17950;BME280;9100;48.700;9.316;2023-03-01T00:45:34;98472.1;;;0.91;100
17950;BME280;9100;48.700;9.316;2023-03-01T00:46:31;98474.8;;;0.88;100
17950;BME280;9100;48.700;9.316;2023-03-01T00:46:34;98476.4;;;0.89;100
17950;BME280;9100;48.700;9.316;2023-03-01T00:47:34;98479.8;;;0.88;100
17950;BME280;9100;48.700;9.316;2023-03-01T00:48:35;98479.1;;;0.86;100
17950;BME280;9100;48.700;9.316;2023-03-01T00:49:34;98479.2;;;0.85;100
17950;BME280;9100;48.700;9.316;2023-03-01T00:50:34;98475.9;;;0.84;100
17950;BME280;9100;48.700;9.316;2023-03-01T00:51:31;98480.1;;;0.84;100
17950;BME280;9100;48.700;9.316;2023-03-01T00:51:34;98480.1;;;0.84;100
17950;BME280;9100;48.700;9.316;2023-03-01T00:52:35;98476.8;;;0.83;100
17950;BME280;9100;48.700;9.316;2023-03-01T00:53:35;98474.3;;;0.83;100
17950;BME280;9100;48.700;9.316;2023-03-01T00:54:34;98470.1;;;0.84;100
17950;BME280;9100;48.700;9.316;2023-03-01T00:55:35;98264.59999999999;;;-0.46;100
17950;BME280;9100;48.700;9.316;2023-03-01T00:56:31;98470.1;;;0.82;100
17950;BME280;9100;48.700;9.316;2023-03-01T00:56:34;98470.1;;;0.82;100
17950;BME280;9100;48.700;9.316;2023-03-01T00:57:34;98467.6;;;0.82;100
17950;BME280;9100;48.700;9.316;2023-03-01T00:58:35;98477.59999999999;;;0.84;100
17950;BME280;9100;48.700;9.316;2023-03-01T00:59:34;98473.40000000001;;;0.84;100
17950;BME280;9100;48.700;9.316;2023-03-01T01:00:34;98464.09999999999;;;0.85;100
17950;BME280;9100;48.700;9.316;2023-03-01T01:01:32;98468.4;;;0.84;100
17950;BME280;9100;48.700;9.316;2023-03-01T01:01:34;98470;;;0.85;100
17950;BME280;9100;48.700;9.316;2023-03-01T01:02:35;98470;;;0.85;100
17950;BME280;9100;48.700;9.316;2023-03-01T01:03:34;98467.5;;;0.85;100
17950;BME280;9100;48.700;9.316;2023-03-01T01:04:34;98465.8;;;0.84;100
17950;BME280;9100;48.700;9.316;2023-03-01T01:05:34;98471.8;;;0.83;100
17950;BME280;9100;48.700;9.316;2023-03-01T01:06:32;98468.6;;;0.81;100
17950;BME280;9100;48.700;9.316;2023-03-01T01:06:35;98471.1;;;0.81;100
17950;BME280;9100;48.700;9.316;2023-03-01T01:07:34;98468.6;;;0.81;100
17950;BME280;9100;48.700;9.316;2023-03-01T01:08:34;98464.3;;;0.82;100
17950;BME280;9100;48.700;9.316;2023-03-01T01:09:34;98462.7;;;0.81;100
17950;BME280;9100;48.700;9.316;2023-03-01T01:10:34;98464.4;;;0.8;100
17950;BME280;9100;48.700;9.316;2023-03-01T01:11:31;98464.4;;;0.8;100
17950;BME280;9100;48.700;9.316;2023-03-01T01:11:35;98463.59999999999;;;0.8;100
17950;BME280;9100;48.700;9.316;2023-03-01T01:12:34;98466.9;;;0.8;100
17950;BME280;9100;48.700;9.316;2023-03-01T01:13:34;98469.5;;;0.8;100
17950;BME280;9100;48.700;9.316;2023-03-01T01:14:34;98463.5;;;0.81;100
17950;BME280;9100;48.700;9.316;2023-03-01T01:15:34;98464.3;;;0.82;100
17950;BME280;9100;48.700;9.316;2023-03-01T01:16:31;98461.90000000001;;;0.8;100
17950;BME280;9100;48.700;9.316;2023-03-01T01:16:35;98459.40000000001;;;0.8;100
17950;BME280;9100;48.700;9.316;2023-03-01T01:17:35;98462.7;;;0.81;100
17950;BME280;9100;48.700;9.316;2023-03-01T01:18:35;98461.90000000001;;;0.8;100
17950;BME280;9100;48.700;9.316;2023-03-01T01:19:34;98461.3;;;0.77;100
17950;BME280;9100;48.700;9.316;2023-03-01T01:20:35;98467.2;;;0.76;100
17950;BME280;9100;48.700;9.316;2023-03-01T01:21:32;98460.7;;;0.73;100
17950;BME280;9100;48.700;9.316;2023-03-01T01:21:34;98455.6;;;0.73;100
17950;BME280;9100;48.700;9.316;2023-03-01T01:22:34;98465;;;0.71;100
17950;BME280;9100;48.700;9.316;2023-03-01T01:23:35;98458.4;;;0.7;100
17950;BME280;9100;48.700;9.316;2023-03-01T01:24:35;98455.1;;;0.68;100
17950;BME280;9100;48.700;9.316;2023-03-01T01:25:35;98448.5;;;0.67;100
17950;BME280;9100;48.700;9.316;2023-03-01T01:26:32;98451.09999999999;;;0.66;100
17950;BME280;9100;48.700;9.316;2023-03-01T01:26:34;98450.3;;;0.65;100
17950;BME280;9100;48.700;9.316;2023-03-01T01:27:34;98457;;;0.65;100
17950;BME280;9100;48.700;9.316;2023-03-01T01:28:34;98447.2;;;0.62;100
17950;BME280;9100;48.700;9.316;2023-03-01T01:29:34;98452.20000000001;;;0.62;100
17950;BME280;9100;48.700;9.316;2023-03-01T01:30:34;98445.5;;;0.61;100
17950;BME280;9100;48.700;9.316;2023-03-01T01:31:31;98451.59999999999;;;0.58;100
17950;BME280;9100;48.700;9.316;2023-03-01T01:31:35;98448.1;;;0.61;100
17950;BME280;9100;48.700;9.316;2023-03-01T01:32:34;98446.5;;;0.58;100
17950;BME280;9100;48.700;9.316;2023-03-01T01:33:34;98449;;;0.6;100
17950;BME280;9100;48.700;9.316;2023-03-01T01:34:34;98450.7;;;0.59;100
17950;BME280;9100;48.700;9.316;2023-03-01T01:35:35;98444;;;0.58;100
17950;BME280;9100;48.700;9.316;2023-03-01T01:36:31;98443.2;;;0.58;100
17950;BME280;9100;48.700;9.316;2023-03-01T01:36:35;98444.1;;;0.57;100
17950;BME280;9100;48.700;9.316;2023-03-01T01:37:34;98441.5;;;0.58;100
17950;BME280;9100;48.700;9.316;2023-03-01T01:38:35;98434.90000000001;;;0.57;100
17950;BME280;9100;48.700;9.316;2023-03-01T01:39:34;98438.09999999999;;;0.59;100
17950;BME280;9100;48.700;9.316;2023-03-01T01:40:35;98448.2;;;0.59;100
17950;BME280;9100;48.700;9.316;2023-03-01T01:41:31;98441.5;;;0.58;100
17950;BME280;9100;48.700;9.316;2023-03-01T01:41:34;98440.59999999999;;;0.59;100
17950;BME280;9100;48.700;9.316;2023-03-01T01:42:34;98434.7;;;0.6;100
17950;BME280;9100;48.700;9.316;2023-03-01T01:43:35;98434.7;;;0.6;100
17950;BME280;9100;48.700;9.316;2023-03-01T01:44:35;98436.3;;;0.61;100
17950;BME280;9100;48.700;9.316;2023-03-01T01:45:35;98431.2;;;0.63;100
17950;BME280;9100;48.700;9.316;2023-03-01T01:46:31;98437;;;0.63;100
17950;BME280;9100;48.700;9.316;2023-03-01T01:46:35;98436.2;;;0.63;100
17950;BME280;9100;48.700;9.316;2023-03-01T01:47:34;98438.5;;;0.66;100
17950;BME280;9100;48.700;9.316;2023-03-01T01:48:37;98433.5;;;0.66;100
17950;BME280;9100;48.700;9.316;2023-03-01T01:49:35;98436.7;;;0.68;100
17950;BME280;9100;48.700;9.316;2023-03-01T01:50:34;98432.5;;;0.68;100
17950;BME280;9100;48.700;9.316;2023-03-01T01:51:32;98435;;;0.68;100
17950;BME280;9100;48.700;9.316;2023-03-01T01:51:35;98437.5;;;0.68;100
17950;BME280;9100;48.700;9.316;2023-03-01T01:52:35;98432.4;;;0.7;100
17950;BME280;9100;48.700;9.316;2023-03-01T01:53:34;98435.5;;;0.73;100
17950;BME280;9100;48.700;9.316;2023-03-01T01:54:37;98436.2;;;0.75;100
17950;BME280;9100;48.700;9.316;2023-03-01T01:55:34;98433.7;;;0.75;100
17950;BME280;9100;48.700;9.316;2023-03-01T01:56:31;98427.8;;;0.75;100
17950;BME280;9100;48.700;9.316;2023-03-01T01:56:34;98431.2;;;0.75;100
17950;BME280;9100;48.700;9.316;2023-03-01T01:57:36;98442;;;0.77;100
17950;BME280;9100;48.700;9.316;2023-03-01T01:58:34;98438.5;;;0.78;100
17950;BME280;9100;48.700;9.316;2023-03-01T01:59:34;98427.5;;;0.79;100
17950;BME280;9100;48.700;9.316;2023-03-01T02:00:34;98427.5;;;0.81;100
17950;BME280;9100;48.700;9.316;2023-03-01T02:01:32;98429.2;;;0.8;100
17950;BME280;9100;48.700;9.316;2023-03-01T02:01:35;98428.4;;;0.8;100
17950;BME280;9100;48.700;9.316;2023-03-01T02:02:34;98427.3;;;0.82;100
17950;BME280;9100;48.700;9.316;2023-03-01T02:03:34;98418;;;0.84;100
17950;BME280;9100;48.700;9.316;2023-03-01T02:04:34;98414.59999999999;;;0.85;100
17950;BME280;9100;48.700;9.316;2023-03-01T02:05:36;98425.09999999999;;;0.9;100
17950;BME280;9100;48.700;9.316;2023-03-01T02:06:32;98425.09999999999;;;0.92;100
17950;BME280;9100;48.700;9.316;2023-03-01T02:06:36;98421.7;;;0.91;100
17950;BME280;9100;48.700;9.316;2023-03-01T02:07:34;98424;;;0.94;100
17950;BME280;9100;48.700;9.316;2023-03-01T02:08:35;98419.7;;;0.96;100
17950;BME280;9100;48.700;9.316;2023-03-01T02:09:35;98418.8;;;0.97;100
17950;BME280;9100;48.700;9.316;2023-03-01T02:10:35;98417.8;;;1;100
17950;BME280;9100;48.700;9.316;2023-03-01T02:11:31;98419.4;;;1.01;100
17950;BME280;9100;48.700;9.316;2023-03-01T02:11:34;98414.4;;;1.01;100
17950;BME280;9100;48.700;9.316;2023-03-01T02:12:34;98417.6;;;1.03;100
17950;BME280;9100;48.700;9.316;2023-03-01T02:13:35;98415;;;1.05;100
17950;BME280;9100;48.700;9.316;2023-03-01T02:14:34;98417.5;;;1.05;100
17950;BME280;9100;48.700;9.316;2023-03-01T02:15:35;98404;;;1.06;100
17950;BME280;9100;48.700;9.316;2023-03-01T02:16:31;98409;;;1.07;100
17950;BME280;9100;48.700;9.316;2023-03-01T02:16:34;98403.09999999999;;;1.07;100
17950;BME280;9100;48.700;9.316;2023-03-01T02:17:34;98411.3;;;1.1;100
17950;BME280;9100;48.700;9.316;2023-03-01T02:18:34;98402;;;1.11;100
17950;BME280;9100;48.700;9.316;2023-03-01T02:19:39;98406.1;;;1.12;100
17950;BME280;9100;48.700;9.316;2023-03-01T02:20:35;98401.09999999999;;;1.12;100
17950;BME280;9100;48.700;9.316;2023-03-01T02:21:34;98401.09999999999;;;1.12;100
17950;BME280;9100;48.700;9.316;2023-03-01T02:21:37;98404.4;;;1.12;100
17950;BME280;9100;48.700;9.316;2023-03-01T02:22:35;98401.2;;;1.1;100
17950;BME280;9100;48.700;9.316;2023-03-01T02:23:34;98404.5;;;1.11;100
17950;BME280;9100;48.700;9.316;2023-03-01T02:24:37;98404.6;;;1.09;100
17950;BME280;9100;48.700;9.316;2023-03-01T02:25:36;98402;;;1.11;100
17950;BME280;9100;48.700;9.316;2023-03-01T02:26:33;98397;;;1.11;100
17950;BME280;9100;48.700;9.316;2023-03-01T02:26:36;98407.8;;;1.11;100
17950;BME280;9100;48.700;9.316;2023-03-01T02:27:36;98398.6;;;1.12;100
17950;BME280;9100;48.700;9.316;2023-03-01T02:28:35;98396.1;;;1.12;100
17950;BME280;9100;48.700;9.316;2023-03-01T02:29:34;98386.8;;;1.12;100
17950;BME280;9100;48.700;9.316;2023-03-01T02:30:34;98388.4;;;1.13;100
17950;BME280;9100;48.700;9.316;2023-03-01T02:31:31;98388.4;;;1.13;100
17950;BME280;9100;48.700;9.316;2023-03-01T02:31:34;98397.7;;;1.13;100
17950;BME280;9100;48.700;9.316;2023-03-01T02:32:34;98390.20000000001;;;1.11;100
17950;BME280;9100;48.700;9.316;2023-03-01T02:33:35;98383.6;;;1.09;100
17950;BME280;9100;48.700;9.316;2023-03-01T02:34:34;98385.40000000001;;;1.08;100
17950;BME280;9100;48.700;9.316;2023-03-01T02:35:35;98381.2;;;1.07;100
17950;BME280;9100;48.700;9.316;2023-03-01T02:36:32;98384.5;;;1.09;100
17950;BME280;9100;48.700;9.316;2023-03-01T02:36:35;98378.59999999999;;;1.09;100
17950;BME280;9100;48.700;9.316;2023-03-01T02:37:34;98381.1;;;1.09;100
17950;BME280;9100;48.700;9.316;2023-03-01T02:38:35;98381.9;;;1.09;100
17950;BME280;9100;48.700;9.316;2023-03-01T02:39:36;98378.5;;;1.1;100
17950;BME280;9100;48.700;9.316;2023-03-01T02:40:35;98381.7;;;1.12;100
17950;BME280;9100;48.700;9.316;2023-03-01T02:41:32;98383.5;;;1.12;100
17950;BME280;9100;48.700;9.316;2023-03-01T02:41:35;98386;;;1.12;100
17950;BME280;9100;48.700;9.316;2023-03-01T02:42:35;98384.2;;;1.14;100
17950;BME280;9100;48.700;9.316;2023-03-01T02:43:34;98382.5;;;1.14;100
17950;BME280;9100;48.700;9.316;2023-03-01T02:44:34;98384.2;;;1.14;100
17950;BME280;9100;48.700;9.316;2023-03-01T02:45:34;98375.9;;;1.12;100
17950;BME280;9100;48.700;9.316;2023-03-01T02:46:31;98377.59999999999;;;1.11;100
17950;BME280;9100;48.700;9.316;2023-03-01T02:46:41;98379.3;;;1.11;100
17950;BME280;9100;48.700;9.316;2023-03-01T02:47:34;98370.2;;;1.1;100
17950;BME280;9100;48.700;9.316;2023-03-01T02:48:39;98372.6;;;1.11;100
17950;BME280;9100;48.700;9.316;2023-03-01T02:49:35;98375.9;;;1.12;100
17950;BME280;9100;48.700;9.316;2023-03-01T02:50:42;98376.09999999999;;;1.09;100
17950;BME280;9100;48.700;9.316;2023-03-01T02:51:38;98373.6;;;1.09;100
17950;BME280;9100;48.700;9.316;2023-03-01T02:51:39;98377.8;;;1.08;100
17950;BME280;9100;48.700;9.316;2023-03-01T02:52:37;98380.2;;;1.1;100
17950;BME280;9100;48.700;9.316;2023-03-01T02:53:35;98375.2;;;1.1;100
17950;BME280;9100;48.700;9.316;2023-03-01T02:54:36;98378.5;;;1.1;100
17950;BME280;9100;48.700;9.316;2023-03-01T02:55:34;98375.2;;;1.1;100
17950;BME280;9100;48.700;9.316;2023-03-01T02:56:31;98374.3;;;1.11;100
17950;BME280;9100;48.700;9.316;2023-03-01T02:56:34;98370.2;;;1.1;100
17950;BME280;9100;48.700;9.316;2023-03-01T02:57:35;98372.7;;;1.1;100
17950;BME280;9100;48.700;9.316;2023-03-01T02:58:34;98365.9;;;1.1;100
17950;BME280;9100;48.700;9.316;2023-03-01T02:59:35;98371.1;;;1.09;100
17950;BME280;9100;48.700;9.316;2023-03-01T03:00:35;98370.3;;;1.08;100
17950;BME280;9100;48.700;9.316;2023-03-01T03:01:31;98362.8;;;1.07;100
17950;BME280;9100;48.700;9.316;2023-03-01T03:01:34;98362.8;;;1.07;100
17950;BME280;9100;48.700;9.316;2023-03-01T03:02:35;98366.2;;;1.06;100
17950;BME280;9100;48.700;9.316;2023-03-01T03:03:34;98373;;;1.05;100
17950;BME280;9100;48.700;9.316;2023-03-01T03:04:34;98362.8;;;1.07;100
17950;BME280;9100;48.700;9.316;2023-03-01T03:05:34;98362;;;1.06;100
17950;BME280;9100;48.700;9.316;2023-03-01T03:06:31;98361.3;;;1.04;100
17950;BME280;9100;48.700;9.316;2023-03-01T03:06:35;98367.9;;;1.05;100
17950;BME280;9100;48.700;9.316;2023-03-01T03:07:35;98363.8;;;1.04;100
17950;BME280;9100;48.700;9.316;2023-03-01T03:08:35;98358;;;1.04;100
17950;BME280;9100;48.700;9.316;2023-03-01T03:09:34;98361.3;;;1.04;100
17950;BME280;9100;48.700;9.316;2023-03-01T03:10:35;98353.8;;;1.03;100
17950;BME280;9100;48.700;9.316;2023-03-01T03:11:31;98358.1;;;1.02;100
17950;BME280;9100;48.700;9.316;2023-03-01T03:11:34;98354.7;;;1.02;100
17950;BME280;9100;48.700;9.316;2023-03-01T03:12:34;98356.4;;;1.03;100
17950;BME280;9100;48.700;9.316;2023-03-01T03:13:34;98358;;;1.04;100
17950;BME280;9100;48.700;9.316;2023-03-01T03:14:34;98354.7;;;1.02;100
17950;BME280;9100;48.700;9.316;2023-03-01T03:15:34;98352.20000000001;;;1.02;100
17950;BME280;9100;48.700;9.316;2023-03-01T03:16:31;98352.3;;;1;100
17950;BME280;9100;48.700;9.316;2023-03-01T03:16:35;98356.6;;;1;100
17950;BME280;9100;48.700;9.316;2023-03-01T03:17:35;98345.8;;;0.97;100
17950;BME280;9100;48.700;9.316;2023-03-01T03:18:34;98353.09999999999;;;1.01;100
17950;BME280;9100;48.700;9.316;2023-03-01T03:19:35;98355.6;;;1.01;100
17950;BME280;9100;48.700;9.316;2023-03-01T03:20:35;98352.3;;;1;100
17950;BME280;9100;48.700;9.316;2023-03-01T03:21:31;98346.5;;;1;100
17950;BME280;9100;48.700;9.316;2023-03-01T03:21:34;98348.2;;;0.99;100
17950;BME280;9100;48.700;9.316;2023-03-01T03:22:34;98348.2;;;0.99;100
17950;BME280;9100;48.700;9.316;2023-03-01T03:23:34;98350.7;;;0.99;100
17950;BME280;9100;48.700;9.316;2023-03-01T03:24:34;98355.2;;;0.95;100
17950;BME280;9100;48.700;9.316;2023-03-01T03:25:34;98348.29999999999;;;0.97;100
17950;BME280;9100;48.700;9.316;2023-03-01T03:26:31;98349.2;;;0.96;100
17950;BME280;9100;48.700;9.316;2023-03-01T03:26:34;98350.9;;;0.96;100
17950;BME280;9100;48.700;9.316;2023-03-01T03:27:35;98348.29999999999;;;0.97;100
17950;BME280;9100;48.700;9.316;2023-03-01T03:28:35;98339.20000000001;;;0.96;100
17950;BME280;9100;48.700;9.316;2023-03-01T03:29:34;98352.5;;;0.97;100
17950;BME280;9100;48.700;9.316;2023-03-01T03:30:35;98355.2;;;0.95;100
17950;BME280;9100;48.700;9.316;2023-03-01T03:31:31;98338.4;;;0.94;100
17950;BME280;9100;48.700;9.316;2023-03-01T03:31:34;98347.6;;;0.95;100
17950;BME280;9100;48.700;9.316;2023-03-01T03:32:34;98351.9;;;0.93;100
17950;BME280;9100;48.700;9.316;2023-03-01T03:33:35;98344.5;;;0.92;100
17950;BME280;9100;48.700;9.316;2023-03-01T03:34:34;98355.4;;;0.92;100
17950;BME280;9100;48.700;9.316;2023-03-01T03:35:38;98343.7;;;0.91;100
17950;BME280;9100;48.700;9.316;2023-03-01T03:36:31;98343.9;;;0.88;100
17950;BME280;9100;48.700;9.316;2023-03-01T03:36:34;98347.2;;;0.89;100
17950;BME280;9100;48.700;9.316;2023-03-01T03:37:35;98344.6;;;0.9;100
17950;BME280;9100;48.700;9.316;2023-03-01T03:38:34;98347.2;;;0.89;100
17950;BME280;9100;48.700;9.316;2023-03-01T03:39:34;98343.9;;;0.88;100
17950;BME280;9100;48.700;9.316;2023-03-01T03:40:36;98349.8;;;0.87;100
17950;BME280;9100;48.700;9.316;2023-03-01T03:41:31;98346.6;;;0.85;100
17950;BME280;9100;48.700;9.316;2023-03-01T03:41:35;98350.7;;;0.86;100
17950;BME280;9100;48.700;9.316;2023-03-01T03:42:35;98344.1;;;0.85;100
17950;BME280;9100;48.700;9.316;2023-03-01T03:43:35;98345.8;;;0.85;100
17950;BME280;9100;48.700;9.316;2023-03-01T03:44:34;98278.3;;;0.41;100
17950;BME280;9100;48.700;9.316;2023-03-01T03:45:34;98350.09999999999;;;0.83;100
17950;BME280;9100;48.700;9.316;2023-03-01T03:46:32;98345.1;;;0.83;100
17950;BME280;9100;48.700;9.316;2023-03-01T03:46:34;98342.6;;;0.83;100
17950;BME280;9100;48.700;9.316;2023-03-01T03:47:34;98350.9;;;0.83;100
17950;BME280;9100;48.700;9.316;2023-03-01T03:48:35;98344.2;;;0.84;100
17950;BME280;9100;48.700;9.316;2023-03-01T03:49:34;98349.2;;;0.84;100
17950;BME280;9100;48.700;9.316;2023-03-01T03:50:34;98340.9;;;0.83;100
17950;BME280;9100;48.700;9.316;2023-03-01T03:51:32;98347.5;;;0.84;100
17950;BME280;9100;48.700;9.316;2023-03-01T03:51:34;98343.4;;;0.83;100
17950;BME280;9100;48.700;9.316;2023-03-01T03:52:34;98341.7;;;0.84;100
17950;BME280;9100;48.700;9.316;2023-03-01T03:53:34;98344.1;;;0.85;100
17950;BME280;9100;48.700;9.316;2023-03-01T03:54:35;98341.6;;;0.85;100
17950;BME280;9100;48.700;9.316;2023-03-01T03:55:35;98337.2;;;0.87;100
17950;BME280;9100;48.700;9.316;2023-03-01T03:56:31;98341.4;;;0.88;100
17950;BME280;9100;48.700;9.316;2023-03-01T03:56:34;98340.59999999999;;;0.88;100
17950;BME280;9100;48.700;9.316;2023-03-01T03:57:34;98335.40000000001;;;0.89;100
17950;BME280;9100;48.700;9.316;2023-03-01T03:58:34;98332.8;;;0.91;100
17950;BME280;9100;48.700;9.316;2023-03-01T03:59:34;98330.2;;;0.92;100
17950;BME280;9100;48.700;9.316;2023-03-01T04:00:35;98336;;;0.93;100
17950;BME280;9100;48.700;9.316;2023-03-01T04:01:31;98331.4;;;0.87;100
17950;BME280;9100;48.700;9.316;2023-03-01T04:01:34;98336;;;0.93;100
17950;BME280;9100;48.700;9.316;2023-03-01T04:02:34;98332.6;;;0.94;100
17950;BME280;9100;48.700;9.316;2023-03-01T04:03:34;98317.3;;;0.84;100
17950;BME280;9100;48.700;9.316;2023-03-01T04:04:34;98329.3;;;0.93;100
17950;BME280;9100;48.700;9.316;2023-03-01T04:05:35;98340.09999999999;;;0.94;100
17950;BME280;9100;48.700;9.316;2023-03-01T04:06:31;98334.40000000001;;;0.92;100
17950;BME280;9100;48.700;9.316;2023-03-01T04:06:34;98335.2;;;0.92;100
17950;BME280;9100;48.700;9.316;2023-03-01T04:07:34;98332.8;;;0.91;100
17950;BME280;9100;48.700;9.316;2023-03-01T04:08:34;98326.09999999999;;;0.91;100
17950;BME280;9100;48.700;9.316;2023-03-01T04:09:34;98325.2;;;0.92;100
17950;BME280;9100;48.700;9.316;2023-03-01T04:10:35;98325;;;0.94;100
17950;BME280;9100;48.700;9.316;2023-03-01T04:11:31;98326.8;;;0.93;100
17950;BME280;9100;48.700;9.316;2023-03-01T04:11:34;98329.2;;;0.95;100
17950;BME280;9100;48.700;9.316;2023-03-01T04:12:34;98325;;;0.95;100
17950;BME280;9100;48.700;9.316;2023-03-01T04:13:34;98321.6;;;0.95;100
17950;BME280;9100;48.700;9.316;2023-03-01T04:14:35;98318.3;;;0.94;100
17950;BME280;9100;48.700;9.316;2023-03-01T04:15:34;98317.5;;;0.94;100
17950;BME280;9100;48.700;9.316;2023-03-01T04:16:31;98310.90000000001;;;0.93;100
17950;BME280;9100;48.700;9.316;2023-03-01T04:16:34;98315.9;;;0.93;100
17950;BME280;9100;48.700;9.316;2023-03-01T04:17:34;98310.7;;;0.94;100
17950;BME280;9100;48.700;9.316;2023-03-01T04:18:34;98314.8;;;0.97;100
17950;BME280;9100;48.700;9.316;2023-03-01T04:19:34;98319.9;;;0.95;100
17950;BME280;9100;48.700;9.316;2023-03-01T04:20:35;98316.5;;;0.96;100
17950;BME280;9100;48.700;9.316;2023-03-01T04:21:31;98307.3;;;0.95;100
17950;BME280;9100;48.700;9.316;2023-03-01T04:21:34;98309.79999999999;;;0.95;100
17950;BME280;9100;48.700;9.316;2023-03-01T04:22:35;98316.4;;;0.98;100
17950;BME280;9100;48.700;9.316;2023-03-01T04:23:34;98311.5;;;0.96;100
17950;BME280;9100;48.700;9.316;2023-03-01T04:24:34;98309;;;0.95;100
17950;BME280;9100;48.700;9.316;2023-03-01T04:25:34;98314.09999999999;;;0.95;100
17950;BME280;9100;48.700;9.316;2023-03-01T04:26:31;98303.2;;;0.94;100
17950;BME280;9100;48.700;9.316;2023-03-01T04:26:35;98314.20000000001;;;0.93;100
17950;BME280;9100;48.700;9.316;2023-03-01T04:27:34;98314.09999999999;;;0.95;100
17950;BME280;9100;48.700;9.316;2023-03-01T04:28:35;98309.79999999999;;;0.95;100
17950;BME280;9100;48.700;9.316;2023-03-01T04:29:34;98319;;;0.96;100
17950;BME280;9100;48.700;9.316;2023-03-01T04:30:35;98310.5;;;0.97;100
17950;BME280;9100;48.700;9.316;2023-03-01T04:31:31;98314.70000000001;;;0.98;100
17950;BME280;9100;48.700;9.316;2023-03-01T04:31:35;98312.09999999999;;;0.98;100
17950;BME280;9100;48.700;9.316;2023-03-01T04:32:34;98315.5;;;0.99;100
17950;BME280;9100;48.700;9.316;2023-03-01T04:33:34;98317.1;;;1;100
17950;BME280;9100;48.700;9.316;2023-03-01T04:34:34;98312.09999999999;;;1;100
17950;BME280;9100;48.700;9.316;2023-03-01T04:35:35;98306.2;;;1;100
17950;BME280;9100;48.700;9.316;2023-03-01T04:36:31;98311.2;;;1;100
17950;BME280;9100;48.700;9.316;2023-03-01T04:36:34;98313.59999999999;;;1.01;100
17950;BME280;9100;48.700;9.316;2023-03-01T04:37:34;98311.90000000001;;;1.02;100